sensor_id;sensor_type;location;lat;lon;timestamp;pressure;altitude;pressure_sealevel;temperature;humidity
28665;BME280;15850;47.524;7.814;2022-07-30T00:02:18;97858.94;;;16.32;100.00
28665;BME280;15850;47.524;7.814;2022-07-30T00:04:45;97665.69;;;14.97;100.00
28665;BME280;15850;47.524;7.814;2022-07-30T00:07:11;97920.13;;;16.56;100.00
28665;BME280;15850;47.524;7.814;2022-07-30T00:09:37;97824.81;;;15.77;100.00
28665;BME280;15850;47.524;7.814;2022-07-30T00:12:03;97925.31;;;16.38;100.00
28665;BME280;15850;47.524;7.814;2022-07-30T00:14:29;97748.22;;;15.18;100.00
28665;BME280;15850;47.524;7.814;2022-07-30T00:16:55;97925.28;;;16.34;100.00
28665;BME280;15850;47.524;7.814;2022-07-30T00:19:20;97921.84;;;16.41;100.00
28665;BME280;15850;47.524;7.814;2022-07-30T00:21:47;97888.94;;;16.18;100.00
28665;BME280;15850;47.524;7.814;2022-07-30T00:24:13;97908.25;;;16.25;100.00
28665;BME280;15850;47.524;7.814;2022-07-30T00:26:38;97918.56;;;16.32;100.00
28665;BME280;15850;47.524;7.814;2022-07-30T00:29:04;97912.81;;;16.14;100.00
28665;BME280;15850;47.524;7.814;2022-07-30T00:31:30;97899.94;;;15.95;100.00
28665;BME280;15850;47.524;7.814;2022-07-30T00:33:59;97919.97;;;16.22;100.00
28665;BME280;15850;47.524;7.814;2022-07-30T00:36:25;97865.69;;;15.85;100.00
28665;BME280;15850;47.524;7.814;2022-07-30T00:38:52;97920.66;;;16.15;100.00
28665;BME280;15850;47.524;7.814;2022-07-30T00:41:17;97813.63;;;15.43;100.00
28665;BME280;15850;47.524;7.814;2022-07-30T00:43:43;97925.13;;;16.01;100.00
28665;BME280;15850;47.524;7.814;2022-07-30T00:46:09;97920.22;;;15.87;100.00
28665;BME280;15850;47.524;7.814;2022-07-30T00:48:34;97807.69;;;14.95;100.00
28665;BME280;15850;47.524;7.814;2022-07-30T00:51:00;97897.44;;;15.63;100.00
28665;BME280;15850;47.524;7.814;2022-07-30T00:53:25;97667.41;;;14.01;100.00
28665;BME280;15850;47.524;7.814;2022-07-30T00:55:52;97562.03;;;13.49;100.00
28665;BME280;15850;47.524;7.814;2022-07-30T00:58:18;97918.38;;;15.71;100.00
28665;BME280;15850;47.524;7.814;2022-07-30T01:00:44;97926.59;;;15.71;100.00
28665;BME280;15850;47.524;7.814;2022-07-30T01:03:09;97705.53;;;14.32;100.00
28665;BME280;15850;47.524;7.814;2022-07-30T01:05:35;97831.94;;;15.16;100.00
28665;BME280;15850;47.524;7.814;2022-07-30T01:08:01;97916.78;;;15.70;100.00
28665;BME280;15850;47.524;7.814;2022-07-30T01:10:26;97927.59;;;15.63;100.00
28665;BME280;15850;47.524;7.814;2022-07-30T01:12:53;97814.34;;;14.55;100.00
28665;BME280;15850;47.524;7.814;2022-07-30T01:15:19;97926.41;;;15.41;100.00
28665;BME280;15850;47.524;7.814;2022-07-30T01:17:47;97918.41;;;15.33;100.00
28665;BME280;15850;47.524;7.814;2022-07-30T01:20:20;97924.47;;;15.42;100.00
28665;BME280;15850;47.524;7.814;2022-07-30T01:22:52;97788.84;;;14.70;100.00
28665;BME280;15850;47.524;7.814;2022-07-30T01:28:02;97747.81;;;14.16;100.00
28665;BME280;15850;47.524;7.814;2022-07-30T01:30:31;97873.16;;;15.00;100.00
28665;BME280;15850;47.524;7.814;2022-07-30T01:32:57;97860.47;;;14.92;100.00
28665;BME280;15850;47.524;7.814;2022-07-30T01:35:26;97868.53;;;15.04;100.00
28665;BME280;15850;47.524;7.814;2022-07-30T01:37:54;97885.56;;;15.13;100.00
28665;BME280;15850;47.524;7.814;2022-07-30T01:40:21;97926.22;;;15.31;100.00
28665;BME280;15850;47.524;7.814;2022-07-30T01:42:51;97907.38;;;15.29;100.00
28665;BME280;15850;47.524;7.814;2022-07-30T01:45:18;97927.72;;;15.28;100.00
28665;BME280;15850;47.524;7.814;2022-07-30T01:47:44;97795.72;;;14.25;100.00
28665;BME280;15850;47.524;7.814;2022-07-30T01:50:12;97932.03;;;15.10;100.00
28665;BME280;15850;47.524;7.814;2022-07-30T01:52:39;97927.78;;;15.12;100.00
28665;BME280;15850;47.524;7.814;2022-07-30T01:55:08;97931.84;;;14.99;100.00
28665;BME280;15850;47.524;7.814;2022-07-30T01:57:35;97513.47;;;12.36;100.00
28665;BME280;15850;47.524;7.814;2022-07-30T02:00:04;97871.56;;;14.79;100.00
28665;BME280;15850;47.524;7.814;2022-07-30T02:02:43;97786.03;;;14.12;100.00
28665;BME280;15850;47.524;7.814;2022-07-30T02:05:09;97865.66;;;14.58;100.00
28665;BME280;15850;47.524;7.814;2022-07-30T02:07:39;97877.13;;;14.64;100.00
28665;BME280;15850;47.524;7.814;2022-07-30T02:10:12;97939.63;;;14.97;100.00
28665;BME280;15850;47.524;7.814;2022-07-30T02:12:47;97940.28;;;14.90;100.00
28665;BME280;15850;47.524;7.814;2022-07-30T02:15:23;97848.88;;;14.24;100.00
28665;BME280;15850;47.524;7.814;2022-07-30T02:17:55;97902.31;;;14.38;100.00
28665;BME280;15850;47.524;7.814;2022-07-30T02:20:24;97890.59;;;14.37;100.00
28665;BME280;15850;47.524;7.814;2022-07-30T02:22:54;97927.53;;;14.63;100.00
28665;BME280;15850;47.524;7.814;2022-07-30T02:25:22;97936.56;;;14.83;100.00
28665;BME280;15850;47.524;7.814;2022-07-30T02:27:53;97937.75;;;14.82;100.00
28665;BME280;15850;47.524;7.814;2022-07-30T02:30:21;97608.50;;;12.34;100.00
28665;BME280;15850;47.524;7.814;2022-07-30T02:32:48;97484.94;;;11.86;100.00
28665;BME280;15850;47.524;7.814;2022-07-30T02:35:20;97936.44;;;14.75;100.00
28665;BME280;15850;47.524;7.814;2022-07-30T02:37:50;97927.13;;;14.61;100.00
28665;BME280;15850;47.524;7.814;2022-07-30T02:40:18;97952.97;;;14.63;100.00
28665;BME280;15850;47.524;7.814;2022-07-30T02:42:49;97906.19;;;14.37;100.00
28665;BME280;15850;47.524;7.814;2022-07-30T02:45:19;97942.84;;;14.64;100.00
28665;BME280;15850;47.524;7.814;2022-07-30T02:47:47;97950.22;;;14.63;100.00
28665;BME280;15850;47.524;7.814;2022-07-30T02:50:18;97926.66;;;14.43;100.00
28665;BME280;15850;47.524;7.814;2022-07-30T02:52:44;97877.66;;;14.18;100.00
28665;BME280;15850;47.524;7.814;2022-07-30T02:55:11;97863.81;;;13.95;100.00
28665;BME280;15850;47.524;7.814;2022-07-30T02:57:40;97924.78;;;14.27;100.00
28665;BME280;15850;47.524;7.814;2022-07-30T03:00:07;97616.56;;;12.15;100.00
28665;BME280;15850;47.524;7.814;2022-07-30T03:02:34;97846.28;;;13.49;100.00
28665;BME280;15850;47.524;7.814;2022-07-30T03:05:03;97906.50;;;13.84;100.00
28665;BME280;15850;47.524;7.814;2022-07-30T03:07:33;97964.34;;;14.14;100.00
28665;BME280;15850;47.524;7.814;2022-07-30T03:10:00;97527.34;;;11.43;100.00
28665;BME280;15850;47.524;7.814;2022-07-30T03:12:28;97950.91;;;14.09;100.00
28665;BME280;15850;47.524;7.814;2022-07-30T03:14:56;97952.47;;;14.10;100.00
28665;BME280;15850;47.524;7.814;2022-07-30T03:17:23;97837.47;;;13.39;100.00
28665;BME280;15850;47.524;7.814;2022-07-30T03:19:52;97901.84;;;13.84;100.00
28665;BME280;15850;47.524;7.814;2022-07-30T03:22:21;97954.69;;;14.20;100.00
28665;BME280;15850;47.524;7.814;2022-07-30T03:24:51;97819.72;;;13.33;100.00
28665;BME280;15850;47.524;7.814;2022-07-30T03:27:18;97957.94;;;14.26;100.00
28665;BME280;15850;47.524;7.814;2022-07-30T03:29:44;97880.31;;;13.67;100.00
28665;BME280;15850;47.524;7.814;2022-07-30T03:32:11;97957.34;;;14.01;100.00
28665;BME280;15850;47.524;7.814;2022-07-30T03:34:38;97846.28;;;13.21;100.00
28665;BME280;15850;47.524;7.814;2022-07-30T03:37:04;97934.31;;;13.86;100.00
28665;BME280;15850;47.524;7.814;2022-07-30T03:39:33;97919.28;;;13.64;100.00
28665;BME280;15850;47.524;7.814;2022-07-30T03:42:00;97967.28;;;13.77;100.00
28665;BME280;15850;47.524;7.814;2022-07-30T03:44:26;97948.25;;;13.65;100.00
28665;BME280;15850;47.524;7.814;2022-07-30T03:46:54;97943.75;;;13.73;100.00
28665;BME280;15850;47.524;7.814;2022-07-30T03:49:22;97967.81;;;13.83;100.00
28665;BME280;15850;47.524;7.814;2022-07-30T03:51:49;97411.47;;;10.12;100.00
28665;BME280;15850;47.524;7.814;2022-07-30T03:54:16;97520.94;;;10.83;100.00
28665;BME280;15850;47.524;7.814;2022-07-30T03:57:02;97970.53;;;13.67;100.00
28665;BME280;15850;47.524;7.814;2022-07-30T03:59:38;97616.47;;;11.43;100.00
28665;BME280;15850;47.524;7.814;2022-07-30T04:02:04;97973.28;;;13.83;100.00
28665;BME280;15850;47.524;7.814;2022-07-30T04:04:52;97969.50;;;13.72;100.00
28665;BME280;15850;47.524;7.814;2022-07-30T04:07:18;97976.22;;;13.74;100.00
28665;BME280;15850;47.524;7.814;2022-07-30T04:09:44;97923.31;;;13.38;100.00
28665;BME280;15850;47.524;7.814;2022-07-30T04:12:37;97834.91;;;12.75;100.00
28665;BME280;15850;47.524;7.814;2022-07-30T04:15:03;97622.13;;;11.38;100.00
28665;BME280;15850;47.524;7.814;2022-07-30T04:17:34;97981.94;;;13.69;100.00
28665;BME280;15850;47.524;7.814;2022-07-30T04:20:06;97984.19;;;13.67;100.00
28665;BME280;15850;47.524;7.814;2022-07-30T04:22:34;97984.66;;;13.69;100.00
28665;BME280;15850;47.524;7.814;2022-07-30T04:25:01;97983.50;;;13.70;100.00
28665;BME280;15850;47.524;7.814;2022-07-30T04:27:50;97980.72;;;13.82;100.00
28665;BME280;15850;47.524;7.814;2022-07-30T04:30:16;97903.91;;;13.28;100.00
28665;BME280;15850;47.524;7.814;2022-07-30T04:32:42;97989.44;;;13.72;100.00
28665;BME280;15850;47.524;7.814;2022-07-30T04:35:27;97993.50;;;13.78;100.00
28665;BME280;15850;47.524;7.814;2022-07-30T04:38:08;97998.09;;;13.90;100.00
28665;BME280;15850;47.524;7.814;2022-07-30T04:40:34;97831.16;;;12.79;100.00
28665;BME280;15850;47.524;7.814;2022-07-30T04:43:00;97984.50;;;13.78;100.00
28665;BME280;15850;47.524;7.814;2022-07-30T04:45:26;98008.41;;;13.97;100.00
28665;BME280;15850;47.524;7.814;2022-07-30T04:47:58;98015.22;;;14.03;100.00
28665;BME280;15850;47.524;7.814;2022-07-30T04:50:45;97978.94;;;13.90;100.00
28665;BME280;15850;47.524;7.814;2022-07-30T04:53:14;97960.16;;;13.89;100.00
28665;BME280;15850;47.524;7.814;2022-07-30T04:55:47;97972.00;;;13.93;100.00
28665;BME280;15850;47.524;7.814;2022-07-30T04:58:17;98030.69;;;14.43;100.00
28665;BME280;15850;47.524;7.814;2022-07-30T05:00:44;98019.41;;;14.60;100.00
28665;BME280;15850;47.524;7.814;2022-07-30T05:03:15;97995.63;;;14.48;100.00
28665;BME280;15850;47.524;7.814;2022-07-30T05:05:48;98030.22;;;14.88;100.00
28665;BME280;15850;47.524;7.814;2022-07-30T05:08:14;98029.47;;;15.07;100.00
28665;BME280;15850;47.524;7.814;2022-07-30T05:10:42;98027.88;;;15.06;100.00
28665;BME280;15850;47.524;7.814;2022-07-30T05:13:13;97902.31;;;14.38;100.00
28665;BME280;15850;47.524;7.814;2022-07-30T05:15:41;98035.22;;;15.37;100.00
28665;BME280;15850;47.524;7.814;2022-07-30T05:18:09;97883.59;;;14.40;100.00
28665;BME280;15850;47.524;7.814;2022-07-30T05:20:40;97991.47;;;15.25;100.00
28665;BME280;15850;47.524;7.814;2022-07-30T05:23:29;98036.63;;;15.66;100.00
28665;BME280;15850;47.524;7.814;2022-07-30T05:26:03;98032.72;;;15.67;100.00
28665;BME280;15850;47.524;7.814;2022-07-30T05:28:34;98028.41;;;15.66;100.00
28665;BME280;15850;47.524;7.814;2022-07-30T05:31:05;97925.41;;;14.91;100.00
28665;BME280;15850;47.524;7.814;2022-07-30T05:33:31;98031.19;;;15.70;100.00
28665;BME280;15850;47.524;7.814;2022-07-30T05:35:56;98031.75;;;15.79;100.00
28665;BME280;15850;47.524;7.814;2022-07-30T05:38:22;97949.13;;;15.42;100.00
28665;BME280;15850;47.524;7.814;2022-07-30T05:41:04;97976.88;;;15.79;100.00
28665;BME280;15850;47.524;7.814;2022-07-30T05:43:56;98026.97;;;16.18;100.00
28665;BME280;15850;47.524;7.814;2022-07-30T05:46:23;98013.31;;;16.22;100.00
28665;BME280;15850;47.524;7.814;2022-07-30T05:48:48;98029.38;;;16.43;100.00
28665;BME280;15850;47.524;7.814;2022-07-30T05:51:14;98034.34;;;16.60;100.00
28665;BME280;15850;47.524;7.814;2022-07-30T05:53:40;98032.13;;;16.93;100.00
28665;BME280;15850;47.524;7.814;2022-07-30T05:56:08;98015.47;;;16.82;100.00
28665;BME280;15850;47.524;7.814;2022-07-30T05:58:52;97998.56;;;16.80;100.00
28665;BME280;15850;47.524;7.814;2022-07-30T06:01:30;98002.00;;;17.00;100.00
28665;BME280;15850;47.524;7.814;2022-07-30T06:03:59;98026.84;;;17.37;100.00
28665;BME280;15850;47.524;7.814;2022-07-30T06:06:42;98039.06;;;17.73;100.00
28665;BME280;15850;47.524;7.814;2022-07-30T06:09:08;97970.63;;;17.04;100.00
28665;BME280;15850;47.524;7.814;2022-07-30T06:11:33;98013.28;;;17.21;100.00
28665;BME280;15850;47.524;7.814;2022-07-30T06:14:00;98039.13;;;17.47;100.00
28665;BME280;15850;47.524;7.814;2022-07-30T06:16:25;98037.41;;;17.65;100.00
28665;BME280;15850;47.524;7.814;2022-07-30T06:18:52;98036.66;;;17.68;100.00
28665;BME280;15850;47.524;7.814;2022-07-30T06:21:40;98041.28;;;17.94;100.00
28665;BME280;15850;47.524;7.814;2022-07-30T06:24:09;98036.34;;;18.11;100.00
28665;BME280;15850;47.524;7.814;2022-07-30T06:26:38;98042.03;;;18.28;100.00
28665;BME280;15850;47.524;7.814;2022-07-30T06:29:06;98046.19;;;18.56;100.00
28665;BME280;15850;47.524;7.814;2022-07-30T06:31:31;98041.78;;;18.44;100.00
28665;BME280;15850;47.524;7.814;2022-07-30T06:33:59;98038.16;;;18.37;100.00
28665;BME280;15850;47.524;7.814;2022-07-30T06:36:28;98044.72;;;18.66;100.00
28665;BME280;15850;47.524;7.814;2022-07-30T06:38:59;98050.78;;;18.82;100.00
28665;BME280;15850;47.524;7.814;2022-07-30T06:41:56;98040.13;;;18.81;100.00
28665;BME280;15850;47.524;7.814;2022-07-30T06:44:25;97952.28;;;18.24;100.00
28665;BME280;15850;47.524;7.814;2022-07-30T06:47:10;98037.03;;;18.89;100.00
28665;BME280;15850;47.524;7.814;2022-07-30T06:49:38;98056.91;;;19.20;100.00
28665;BME280;15850;47.524;7.814;2022-07-30T06:52:07;98055.34;;;19.19;100.00
28665;BME280;15850;47.524;7.814;2022-07-30T06:54:33;98042.00;;;19.28;100.00
28665;BME280;15850;47.524;7.814;2022-07-30T06:57:08;98045.13;;;19.27;100.00
28665;BME280;15850;47.524;7.814;2022-07-30T06:59:33;98045.22;;;19.37;100.00
28665;BME280;15850;47.524;7.814;2022-07-30T07:02:19;98056.69;;;19.50;100.00
28665;BME280;15850;47.524;7.814;2022-07-30T07:05:05;98054.69;;;19.43;100.00
28665;BME280;15850;47.524;7.814;2022-07-30T07:07:31;98048.78;;;19.45;100.00
28665;BME280;15850;47.524;7.814;2022-07-30T07:09:58;97988.34;;;19.15;100.00
28665;BME280;15850;47.524;7.814;2022-07-30T07:12:42;98049.31;;;19.76;100.00
28665;BME280;15850;47.524;7.814;2022-07-30T07:15:08;98035.53;;;19.79;100.00
28665;BME280;15850;47.524;7.814;2022-07-30T07:17:34;98054.09;;;19.93;100.00
28665;BME280;15850;47.524;7.814;2022-07-30T07:20:00;98005.22;;;20.01;99.96
28665;BME280;15850;47.524;7.814;2022-07-30T07:22:27;97957.44;;;19.75;99.14
28665;BME280;15850;47.524;7.814;2022-07-30T07:24:53;98035.63;;;20.18;99.49
28665;BME280;15850;47.524;7.814;2022-07-30T07:27:23;98055.81;;;20.37;99.86
28665;BME280;15850;47.524;7.814;2022-07-30T07:29:53;98036.09;;;20.56;99.38
28665;BME280;15850;47.524;7.814;2022-07-30T07:32:19;98023.06;;;20.53;96.82
28665;BME280;15850;47.524;7.814;2022-07-30T07:34:44;98060.56;;;20.58;97.59
28665;BME280;15850;47.524;7.814;2022-07-30T07:37:10;97992.59;;;20.03;97.15
28665;BME280;15850;47.524;7.814;2022-07-30T07:39:37;98039.25;;;20.69;94.96
28665;BME280;15850;47.524;7.814;2022-07-30T07:42:03;98041.97;;;21.05;92.34
28665;BME280;15850;47.524;7.814;2022-07-30T07:44:29;98023.03;;;20.89;93.05
28665;BME280;15850;47.524;7.814;2022-07-30T07:46:55;98026.56;;;21.00;93.28
28665;BME280;15850;47.524;7.814;2022-07-30T07:49:24;98065.25;;;21.32;91.16
28665;BME280;15850;47.524;7.814;2022-07-30T07:51:50;98029.31;;;21.11;91.63
28665;BME280;15850;47.524;7.814;2022-07-30T07:54:18;98053.38;;;21.35;92.35
28665;BME280;15850;47.524;7.814;2022-07-30T07:56:45;98066.81;;;21.48;90.82
28665;BME280;15850;47.524;7.814;2022-07-30T07:59:12;98060.09;;;21.52;91.13
28665;BME280;15850;47.524;7.814;2022-07-30T08:01:38;98031.22;;;21.32;91.08
28665;BME280;15850;47.524;7.814;2022-07-30T08:04:23;98059.59;;;21.79;90.14
28665;BME280;15850;47.524;7.814;2022-07-30T08:07:09;98052.50;;;21.67;89.59
28665;BME280;15850;47.524;7.814;2022-07-30T08:09:58;97979.06;;;21.38;84.45
28665;BME280;15850;47.524;7.814;2022-07-30T08:12:31;98058.75;;;21.86;83.01
28665;BME280;15850;47.524;7.814;2022-07-30T08:15:20;98061.84;;;22.02;81.42
28665;BME280;15850;47.524;7.814;2022-07-30T08:18:15;98065.75;;;22.08;80.02
28665;BME280;15850;47.524;7.814;2022-07-30T08:20:47;98063.00;;;22.15;79.33
28665;BME280;15850;47.524;7.814;2022-07-30T08:23:17;98061.31;;;22.25;78.96
28665;BME280;15850;47.524;7.814;2022-07-30T08:25:43;98064.19;;;22.07;78.90
28665;BME280;15850;47.524;7.814;2022-07-30T08:28:10;97800.72;;;20.65;77.80
28665;BME280;15850;47.524;7.814;2022-07-30T08:30:36;97919.59;;;21.67;77.47
28665;BME280;15850;47.524;7.814;2022-07-30T08:33:03;97984.28;;;21.98;73.60
28665;BME280;15850;47.524;7.814;2022-07-30T08:35:29;97839.38;;;20.76;75.75
28665;BME280;15850;47.524;7.814;2022-07-30T08:37:55;97799.88;;;20.75;76.42
28665;BME280;15850;47.524;7.814;2022-07-30T08:40:24;98051.31;;;22.42;74.14
28665;BME280;15850;47.524;7.814;2022-07-30T08:42:58;98062.28;;;22.60;71.17
28665;BME280;15850;47.524;7.814;2022-07-30T08:45:26;98058.38;;;22.50;71.78
28665;BME280;15850;47.524;7.814;2022-07-30T08:47:54;98044.53;;;22.50;71.42
28665;BME280;15850;47.524;7.814;2022-07-30T08:50:26;98054.22;;;22.76;72.28
28665;BME280;15850;47.524;7.814;2022-07-30T08:53:07;98055.66;;;22.98;70.88
28665;BME280;15850;47.524;7.814;2022-07-30T08:55:33;97951.53;;;22.42;71.63
28665;BME280;15850;47.524;7.814;2022-07-30T08:57:59;98054.63;;;23.19;69.97
28665;BME280;15850;47.524;7.814;2022-07-30T09:00:26;98055.56;;;23.06;70.34
28665;BME280;15850;47.524;7.814;2022-07-30T09:02:51;98054.56;;;23.27;68.31
28665;BME280;15850;47.524;7.814;2022-07-30T09:05:17;98055.34;;;23.27;66.59
28665;BME280;15850;47.524;7.814;2022-07-30T09:07:43;98056.72;;;23.46;65.97
28665;BME280;15850;47.524;7.814;2022-07-30T09:10:14;98049.81;;;23.24;62.70
28665;BME280;15850;47.524;7.814;2022-07-30T09:12:41;98055.91;;;23.49;62.24
28665;BME280;15850;47.524;7.814;2022-07-30T09:15:10;98059.66;;;23.66;60.70
28665;BME280;15850;47.524;7.814;2022-07-30T09:17:53;98063.78;;;23.54;60.88
28665;BME280;15850;47.524;7.814;2022-07-30T09:20:20;98059.38;;;23.57;57.39
28665;BME280;15850;47.524;7.814;2022-07-30T09:22:48;97955.41;;;22.93;54.01
28665;BME280;15850;47.524;7.814;2022-07-30T09:25:37;98055.47;;;23.54;52.60
28665;BME280;15850;47.524;7.814;2022-07-30T09:28:29;98057.38;;;23.61;49.64
28665;BME280;15850;47.524;7.814;2022-07-30T09:31:14;98032.19;;;23.41;50.01
28665;BME280;15850;47.524;7.814;2022-07-30T09:34:00;98032.53;;;23.47;49.63
28665;BME280;15850;47.524;7.814;2022-07-30T09:36:44;98050.94;;;23.67;50.11
28665;BME280;15850;47.524;7.814;2022-07-30T09:39:36;98031.44;;;23.75;47.67
28665;BME280;15850;47.524;7.814;2022-07-30T09:42:21;98044.34;;;23.88;47.95
28665;BME280;15850;47.524;7.814;2022-07-30T09:44:50;97976.41;;;23.62;47.39
28665;BME280;15850;47.524;7.814;2022-07-30T09:47:29;98043.34;;;24.02;45.86
28665;BME280;15850;47.524;7.814;2022-07-30T09:50:04;98029.91;;;23.97;44.55
28665;BME280;15850;47.524;7.814;2022-07-30T09:52:30;98040.13;;;24.07;45.55
28665;BME280;15850;47.524;7.814;2022-07-30T09:54:56;98032.66;;;24.01;45.03
28665;BME280;15850;47.524;7.814;2022-07-30T09:57:25;98026.63;;;24.06;44.86
28665;BME280;15850;47.524;7.814;2022-07-30T09:59:50;98021.44;;;24.08;45.78
28665;BME280;15850;47.524;7.814;2022-07-30T10:02:17;98020.19;;;24.12;44.84
28665;BME280;15850;47.524;7.814;2022-07-30T10:05:12;98023.84;;;24.33;44.54
28665;BME280;15850;47.524;7.814;2022-07-30T10:07:38;97989.75;;;24.29;44.63
28665;BME280;15850;47.524;7.814;2022-07-30T10:10:05;98018.16;;;24.44;43.66
28665;BME280;15850;47.524;7.814;2022-07-30T10:12:33;97979.47;;;24.26;42.45
28665;BME280;15850;47.524;7.814;2022-07-30T10:15:01;98023.44;;;24.61;43.40
28665;BME280;15850;47.524;7.814;2022-07-30T10:17:30;97992.69;;;24.45;42.84
28665;BME280;15850;47.524;7.814;2022-07-30T10:20:18;97991.53;;;24.43;43.77
28665;BME280;15850;47.524;7.814;2022-07-30T10:23:06;97972.16;;;24.35;42.83
28665;BME280;15850;47.524;7.814;2022-07-30T10:25:35;98014.97;;;24.69;41.91
28665;BME280;15850;47.524;7.814;2022-07-30T10:28:20;97989.44;;;24.50;42.39
28665;BME280;15850;47.524;7.814;2022-07-30T10:30:48;98022.81;;;24.97;41.34
28665;BME280;15850;47.524;7.814;2022-07-30T10:33:13;98021.13;;;25.03;41.50
28665;BME280;15850;47.524;7.814;2022-07-30T10:35:41;97993.28;;;25.03;42.33
28665;BME280;15850;47.524;7.814;2022-07-30T10:38:09;98033.53;;;25.42;41.41
28665;BME280;15850;47.524;7.814;2022-07-30T10:40:39;97982.09;;;25.07;41.30
28665;BME280;15850;47.524;7.814;2022-07-30T10:43:29;97977.28;;;25.07;40.82
28665;BME280;15850;47.524;7.814;2022-07-30T10:46:03;98002.09;;;25.22;40.17
28665;BME280;15850;47.524;7.814;2022-07-30T10:48:32;98018.97;;;25.35;40.71
28665;BME280;15850;47.524;7.814;2022-07-30T10:51:00;97981.53;;;24.92;39.57
28665;BME280;15850;47.524;7.814;2022-07-30T10:53:36;98012.81;;;25.23;40.82
28665;BME280;15850;47.524;7.814;2022-07-30T10:56:13;98018.50;;;25.36;40.98
28665;BME280;15850;47.524;7.814;2022-07-30T10:58:57;97978.47;;;25.06;40.25
28665;BME280;15850;47.524;7.814;2022-07-30T11:01:23;98012.91;;;25.40;40.49
28665;BME280;15850;47.524;7.814;2022-07-30T11:04:16;98013.69;;;25.80;39.78
28665;BME280;15850;47.524;7.814;2022-07-30T11:06:43;97903.44;;;25.23;38.96
28665;BME280;15850;47.524;7.814;2022-07-30T11:09:35;98015.66;;;25.80;38.97
28665;BME280;15850;47.524;7.814;2022-07-30T11:12:02;98008.25;;;25.93;38.52
28665;BME280;15850;47.524;7.814;2022-07-30T11:14:55;98001.72;;;25.99;38.23
28665;BME280;15850;47.524;7.814;2022-07-30T11:17:20;97946.75;;;26.16;37.61
28665;BME280;15850;47.524;7.814;2022-07-30T11:20:10;98009.63;;;26.54;37.68
28665;BME280;15850;47.524;7.814;2022-07-30T11:22:38;97978.03;;;26.40;37.44
28665;BME280;15850;47.524;7.814;2022-07-30T11:25:05;98010.28;;;26.90;37.20
28665;BME280;15850;47.524;7.814;2022-07-30T11:27:39;97990.06;;;26.86;36.78
28665;BME280;15850;47.524;7.814;2022-07-30T11:30:32;98004.34;;;26.88;36.99
28665;BME280;15850;47.524;7.814;2022-07-30T11:36:07;97997.53;;;27.06;36.08
28665;BME280;15850;47.524;7.814;2022-07-30T11:38:55;98016.56;;;26.78;36.58
28665;BME280;15850;47.524;7.814;2022-07-30T11:41:21;97993.81;;;26.47;37.48
28665;BME280;15850;47.524;7.814;2022-07-30T11:43:46;97989.38;;;26.82;37.36
28665;BME280;15850;47.524;7.814;2022-07-30T11:46:13;97916.50;;;26.47;36.47
28665;BME280;15850;47.524;7.814;2022-07-30T11:48:41;97987.69;;;27.30;35.98
28665;BME280;15850;47.524;7.814;2022-07-30T11:51:07;97979.31;;;27.30;35.71
28665;BME280;15850;47.524;7.814;2022-07-30T11:53:34;97988.97;;;27.13;35.73
28665;BME280;15850;47.524;7.814;2022-07-30T11:56:01;97994.38;;;27.04;36.02
28665;BME280;15850;47.524;7.814;2022-07-30T11:58:29;97852.09;;;26.71;36.50
28665;BME280;15850;47.524;7.814;2022-07-30T12:00:57;97988.69;;;27.24;36.21
28665;BME280;15850;47.524;7.814;2022-07-30T12:03:24;97995.50;;;27.52;35.86
28665;BME280;15850;47.524;7.814;2022-07-30T12:05:50;97996.56;;;27.12;36.87
28665;BME280;15850;47.524;7.814;2022-07-30T12:08:15;97922.25;;;26.57;35.96
28665;BME280;15850;47.524;7.814;2022-07-30T12:10:42;97993.69;;;27.00;35.28
28665;BME280;15850;47.524;7.814;2022-07-30T12:13:11;97994.69;;;27.51;34.81
28665;BME280;15850;47.524;7.814;2022-07-30T12:15:38;97987.56;;;27.63;34.31
28665;BME280;15850;47.524;7.814;2022-07-30T12:18:04;97996.81;;;27.47;35.16
28665;BME280;15850;47.524;7.814;2022-07-30T12:20:29;97788.88;;;26.35;35.62
28665;BME280;15850;47.524;7.814;2022-07-30T12:22:56;97996.69;;;26.92;36.54
28665;BME280;15850;47.524;7.814;2022-07-30T12:25:21;98004.03;;;26.86;36.45
28665;BME280;15850;47.524;7.814;2022-07-30T12:27:48;97993.25;;;27.17;35.82
28665;BME280;15850;47.524;7.814;2022-07-30T12:30:16;97893.38;;;26.63;35.37
28665;BME280;15850;47.524;7.814;2022-07-30T12:32:42;98007.94;;;27.34;36.33
28665;BME280;15850;47.524;7.814;2022-07-30T12:35:08;98009.53;;;27.35;37.07
28665;BME280;15850;47.524;7.814;2022-07-30T12:37:34;98002.22;;;27.25;36.77
28665;BME280;15850;47.524;7.814;2022-07-30T12:40:07;97982.72;;;27.51;35.56
28665;BME280;15850;47.524;7.814;2022-07-30T12:42:33;97998.47;;;27.45;35.30
28665;BME280;15850;47.524;7.814;2022-07-30T12:44:59;97985.84;;;28.07;35.05
28665;BME280;15850;47.524;7.814;2022-07-30T12:47:27;97987.84;;;28.20;34.05
28665;BME280;15850;47.524;7.814;2022-07-30T12:49:54;97952.13;;;27.73;35.66
28665;BME280;15850;47.524;7.814;2022-07-30T12:52:23;97929.13;;;27.94;34.81
28665;BME280;15850;47.524;7.814;2022-07-30T12:55:00;97976.69;;;28.45;34.47
28665;BME280;15850;47.524;7.814;2022-07-30T12:57:26;97984.16;;;28.61;33.44
28665;BME280;15850;47.524;7.814;2022-07-30T13:00:04;97972.59;;;29.07;33.30
28665;BME280;15850;47.524;7.814;2022-07-30T13:02:33;97876.19;;;28.25;32.01
28665;BME280;15850;47.524;7.814;2022-07-30T13:04:58;97979.47;;;29.27;32.60
28665;BME280;15850;47.524;7.814;2022-07-30T13:07:24;97977.50;;;29.15;32.38
28665;BME280;15850;47.524;7.814;2022-07-30T13:10:06;97965.19;;;29.35;32.39
28665;BME280;15850;47.524;7.814;2022-07-30T13:12:34;97964.75;;;29.14;33.11
28665;BME280;15850;47.524;7.814;2022-07-30T13:15:01;97968.28;;;28.45;35.10
28665;BME280;15850;47.524;7.814;2022-07-30T13:17:27;97974.53;;;28.49;34.81
28665;BME280;15850;47.524;7.814;2022-07-30T13:19:54;97941.56;;;28.06;34.04